sensor_id;sensor_type;location;lat;lon;timestamp;P1;durP1;ratioP1;P2;durP2;ratioP2
75456;SDS011;64036;48.266;14.192;2023-06-19T00:02:07;6.60;;;4.20;;
75456;SDS011;64036;48.266;14.192;2023-06-19T00:04:32;7.20;;;4.50;;
75456;SDS011;64036;48.266;14.192;2023-06-19T00:06:59;6.50;;;4.40;;
75456;SDS011;64036;48.266;14.192;2023-06-19T00:09:25;6.70;;;4.70;;
75456;SDS011;64036;48.266;14.192;2023-06-19T00:11:51;7.30;;;5.10;;
75456;SDS011;64036;48.266;14.192;2023-06-19T00:14:17;7.50;;;5.00;;
75456;SDS011;64036;48.266;14.192;2023-06-19T00:16:43;6.30;;;4.40;;
75456;SDS011;64036;48.266;14.192;2023-06-19T00:19:09;6.70;;;4.60;;
75456;SDS011;64036;48.266;14.192;2023-06-19T00:21:37;6.50;;;4.40;;
75456;SDS011;64036;48.266;14.192;2023-06-19T00:24:04;7.10;;;4.60;;
75456;SDS011;64036;48.266;14.192;2023-06-19T00:26:30;6.20;;;4.60;;
75456;SDS011;64036;48.266;14.192;2023-06-19T00:28:56;6.00;;;4.50;;
75456;SDS011;64036;48.266;14.192;2023-06-19T00:31:22;7.20;;;4.20;;
75456;SDS011;64036;48.266;14.192;2023-06-19T00:33:49;6.80;;;4.70;;
75456;SDS011;64036;48.266;14.192;2023-06-19T00:36:16;6.70;;;4.00;;
75456;SDS011;64036;48.266;14.192;2023-06-19T00:38:46;6.30;;;4.60;;
75456;SDS011;64036;48.266;14.192;2023-06-19T00:41:11;7.30;;;4.10;;
75456;SDS011;64036;48.266;14.192;2023-06-19T00:43:37;6.80;;;4.60;;
75456;SDS011;64036;48.266;14.192;2023-06-19T00:46:03;7.50;;;4.80;;
75456;SDS011;64036;48.266;14.192;2023-06-19T00:48:30;6.90;;;4.70;;
75456;SDS011;64036;48.266;14.192;2023-06-19T00:50:57;7.60;;;5.20;;
75456;SDS011;64036;48.266;14.192;2023-06-19T00:53:24;6.80;;;4.50;;
75456;SDS011;64036;48.266;14.192;2023-06-19T00:55:53;8.60;;;4.70;;
75456;SDS011;64036;48.266;14.192;2023-06-19T00:58:21;6.50;;;4.80;;
75456;SDS011;64036;48.266;14.192;2023-06-19T01:00:48;7.40;;;4.90;;
75456;SDS011;64036;48.266;14.192;2023-06-19T01:03:14;8.00;;;5.20;;
75456;SDS011;64036;48.266;14.192;2023-06-19T01:05:41;7.30;;;5.20;;
75456;SDS011;64036;48.266;14.192;2023-06-19T01:11:04;7.30;;;5.00;;
75456;SDS011;64036;48.266;14.192;2023-06-19T01:14:12;7.10;;;4.70;;
75456;SDS011;64036;48.266;14.192;2023-06-19T01:16:41;6.70;;;4.70;;
75456;SDS011;64036;48.266;14.192;2023-06-19T01:19:10;7.70;;;4.70;;
75456;SDS011;64036;48.266;14.192;2023-06-19T01:21:36;6.80;;;4.90;;
75456;SDS011;64036;48.266;14.192;2023-06-19T01:24:03;7.70;;;5.20;;
75456;SDS011;64036;48.266;14.192;2023-06-19T01:26:28;7.20;;;4.80;;
75456;SDS011;64036;48.266;14.192;2023-06-19T01:28:54;8.40;;;5.60;;
75456;SDS011;64036;48.266;14.192;2023-06-19T01:31:27;7.60;;;5.10;;
75456;SDS011;64036;48.266;14.192;2023-06-19T01:34:01;8.60;;;5.60;;
75456;SDS011;64036;48.266;14.192;2023-06-19T01:36:30;7.80;;;5.00;;
75456;SDS011;64036;48.266;14.192;2023-06-19T01:38:57;7.30;;;4.90;;
75456;SDS011;64036;48.266;14.192;2023-06-19T01:41:24;8.50;;;5.70;;
75456;SDS011;64036;48.266;14.192;2023-06-19T01:43:51;8.00;;;5.40;;
75456;SDS011;64036;48.266;14.192;2023-06-19T01:46:18;8.10;;;5.80;;
75456;SDS011;64036;48.266;14.192;2023-06-19T01:48:43;7.90;;;5.30;;
75456;SDS011;64036;48.266;14.192;2023-06-19T01:51:09;6.60;;;4.70;;
75456;SDS011;64036;48.266;14.192;2023-06-19T01:53:35;7.20;;;5.20;;
75456;SDS011;64036;48.266;14.192;2023-06-19T01:56:01;8.20;;;5.60;;
75456;SDS011;64036;48.266;14.192;2023-06-19T01:58:27;7.60;;;5.50;;
75456;SDS011;64036;48.266;14.192;2023-06-19T02:00:53;7.90;;;5.30;;
75456;SDS011;64036;48.266;14.192;2023-06-19T02:03:19;7.10;;;5.30;;
75456;SDS011;64036;48.266;14.192;2023-06-19T02:05:46;8.10;;;5.60;;
75456;SDS011;64036;48.266;14.192;2023-06-19T02:08:12;7.30;;;5.00;;
75456;SDS011;64036;48.266;14.192;2023-06-19T02:10:37;8.40;;;5.50;;
75456;SDS011;64036;48.266;14.192;2023-06-19T02:13:03;8.30;;;5.60;;
75456;SDS011;64036;48.266;14.192;2023-06-19T02:15:28;7.60;;;5.30;;
75456;SDS011;64036;48.266;14.192;2023-06-19T02:17:57;7.50;;;5.60;;
75456;SDS011;64036;48.266;14.192;2023-06-19T02:20:23;7.40;;;5.40;;
75456;SDS011;64036;48.266;14.192;2023-06-19T02:22:50;7.80;;;5.40;;
75456;SDS011;64036;48.266;14.192;2023-06-19T02:25:17;7.40;;;5.40;;
75456;SDS011;64036;48.266;14.192;2023-06-19T02:27:43;7.50;;;5.30;;
75456;SDS011;64036;48.266;14.192;2023-06-19T02:30:09;8.40;;;5.30;;
75456;SDS011;64036;48.266;14.192;2023-06-19T02:32:35;7.20;;;5.50;;
75456;SDS011;64036;48.266;14.192;2023-06-19T02:35:00;6.70;;;5.00;;
75456;SDS011;64036;48.266;14.192;2023-06-19T02:37:26;8.80;;;5.90;;
75456;SDS011;64036;48.266;14.192;2023-06-19T02:39:52;8.10;;;5.80;;
75456;SDS011;64036;48.266;14.192;2023-06-19T02:42:18;8.30;;;5.60;;
75456;SDS011;64036;48.266;14.192;2023-06-19T02:44:43;8.30;;;5.70;;
75456;SDS011;64036;48.266;14.192;2023-06-19T02:47:09;9.40;;;5.70;;
75456;SDS011;64036;48.266;14.192;2023-06-19T02:49:35;11.40;;;6.30;;
75456;SDS011;64036;48.266;14.192;2023-06-19T02:52:00;8.50;;;5.50;;
75456;SDS011;64036;48.266;14.192;2023-06-19T02:54:26;9.10;;;6.20;;
75456;SDS011;64036;48.266;14.192;2023-06-19T02:56:52;9.50;;;6.20;;
75456;SDS011;64036;48.266;14.192;2023-06-19T02:59:17;9.00;;;5.50;;
75456;SDS011;64036;48.266;14.192;2023-06-19T03:01:43;8.00;;;5.90;;
75456;SDS011;64036;48.266;14.192;2023-06-19T03:04:08;7.10;;;4.70;;
75456;SDS011;64036;48.266;14.192;2023-06-19T03:06:34;8.20;;;5.10;;
75456;SDS011;64036;48.266;14.192;2023-06-19T03:09:05;7.90;;;5.40;;
75456;SDS011;64036;48.266;14.192;2023-06-19T03:11:40;8.30;;;6.10;;
75456;SDS011;64036;48.266;14.192;2023-06-19T03:14:06;9.10;;;5.90;;
75456;SDS011;64036;48.266;14.192;2023-06-19T03:16:35;9.70;;;6.20;;
75456;SDS011;64036;48.266;14.192;2023-06-19T03:19:02;8.30;;;6.00;;
75456;SDS011;64036;48.266;14.192;2023-06-19T03:21:27;9.80;;;6.20;;
75456;SDS011;64036;48.266;14.192;2023-06-19T03:23:53;8.00;;;6.00;;
75456;SDS011;64036;48.266;14.192;2023-06-19T03:26:20;10.10;;;6.90;;
75456;SDS011;64036;48.266;14.192;2023-06-19T03:28:46;9.10;;;5.70;;
75456;SDS011;64036;48.266;14.192;2023-06-19T03:31:13;8.10;;;5.70;;
75456;SDS011;64036;48.266;14.192;2023-06-19T03:33:39;8.30;;;6.20;;
75456;SDS011;64036;48.266;14.192;2023-06-19T03:36:05;9.20;;;6.70;;
75456;SDS011;64036;48.266;14.192;2023-06-19T03:38:31;9.50;;;6.50;;
75456;SDS011;64036;48.266;14.192;2023-06-19T03:40:56;9.40;;;6.60;;
75456;SDS011;64036;48.266;14.192;2023-06-19T03:43:22;9.30;;;6.40;;
75456;SDS011;64036;48.266;14.192;2023-06-19T03:45:48;10.20;;;6.80;;
75456;SDS011;64036;48.266;14.192;2023-06-19T03:48:16;10.00;;;6.50;;
75456;SDS011;64036;48.266;14.192;2023-06-19T03:50:42;8.50;;;6.30;;
75456;SDS011;64036;48.266;14.192;2023-06-19T03:53:08;8.50;;;6.30;;
75456;SDS011;64036;48.266;14.192;2023-06-19T03:55:34;8.30;;;5.70;;
75456;SDS011;64036;48.266;14.192;2023-06-19T03:58:00;9.90;;;6.40;;
75456;SDS011;64036;48.266;14.192;2023-06-19T04:00:26;7.10;;;5.60;;
75456;SDS011;64036;48.266;14.192;2023-06-19T04:02:52;10.10;;;6.20;;
75456;SDS011;64036;48.266;14.192;2023-06-19T04:05:17;9.70;;;6.40;;
75456;SDS011;64036;48.266;14.192;2023-06-19T04:07:45;9.40;;;6.10;;
75456;SDS011;64036;48.266;14.192;2023-06-19T04:10:10;8.90;;;6.70;;
75456;SDS011;64036;48.266;14.192;2023-06-19T04:12:39;9.50;;;6.90;;
75456;SDS011;64036;48.266;14.192;2023-06-19T04:15:06;10.50;;;7.10;;
75456;SDS011;64036;48.266;14.192;2023-06-19T04:17:32;8.10;;;6.50;;
75456;SDS011;64036;48.266;14.192;2023-06-19T04:19:58;9.90;;;6.70;;
75456;SDS011;64036;48.266;14.192;2023-06-19T04:22:24;9.90;;;5.50;;
75456;SDS011;64036;48.266;14.192;2023-06-19T04:24:49;8.30;;;6.50;;
75456;SDS011;64036;48.266;14.192;2023-06-19T04:27:15;8.30;;;6.00;;
75456;SDS011;64036;48.266;14.192;2023-06-19T04:29:40;8.60;;;5.70;;
75456;SDS011;64036;48.266;14.192;2023-06-19T04:32:06;7.70;;;5.80;;
75456;SDS011;64036;48.266;14.192;2023-06-19T04:34:38;8.00;;;6.00;;
75456;SDS011;64036;48.266;14.192;2023-06-19T04:37:04;7.00;;;5.40;;
75456;SDS011;64036;48.266;14.192;2023-06-19T04:39:30;7.90;;;4.90;;
75456;SDS011;64036;48.266;14.192;2023-06-19T04:41:55;6.80;;;4.80;;
75456;SDS011;64036;48.266;14.192;2023-06-19T04:44:21;7.70;;;5.10;;
75456;SDS011;64036;48.266;14.192;2023-06-19T04:46:47;8.60;;;5.40;;
75456;SDS011;64036;48.266;14.192;2023-06-19T04:49:12;7.40;;;5.60;;
75456;SDS011;64036;48.266;14.192;2023-06-19T04:51:38;9.00;;;5.50;;
75456;SDS011;64036;48.266;14.192;2023-06-19T04:54:04;6.40;;;5.20;;
75456;SDS011;64036;48.266;14.192;2023-06-19T04:56:30;6.70;;;5.20;;
75456;SDS011;64036;48.266;14.192;2023-06-19T04:58:56;7.10;;;5.00;;
75456;SDS011;64036;48.266;14.192;2023-06-19T05:01:26;7.70;;;5.40;;
75456;SDS011;64036;48.266;14.192;2023-06-19T05:03:56;8.60;;;5.40;;
75456;SDS011;64036;48.266;14.192;2023-06-19T05:06:25;7.40;;;5.30;;
75456;SDS011;64036;48.266;14.192;2023-06-19T05:08:51;8.60;;;5.50;;
75456;SDS011;64036;48.266;14.192;2023-06-19T05:11:17;7.10;;;5.30;;
75456;SDS011;64036;48.266;14.192;2023-06-19T05:13:44;6.60;;;4.80;;
75456;SDS011;64036;48.266;14.192;2023-06-19T05:16:10;7.60;;;4.90;;
75456;SDS011;64036;48.266;14.192;2023-06-19T05:18:36;8.50;;;5.50;;
75456;SDS011;64036;48.266;14.192;2023-06-19T05:21:02;7.10;;;5.30;;
75456;SDS011;64036;48.266;14.192;2023-06-19T05:23:28;8.70;;;4.90;;
75456;SDS011;64036;48.266;14.192;2023-06-19T05:25:53;7.40;;;5.40;;
75456;SDS011;64036;48.266;14.192;2023-06-19T05:28:19;8.20;;;5.40;;
75456;SDS011;64036;48.266;14.192;2023-06-19T05:30:44;9.30;;;5.40;;
75456;SDS011;64036;48.266;14.192;2023-06-19T05:33:10;9.10;;;5.00;;
75456;SDS011;64036;48.266;14.192;2023-06-19T05:35:42;7.70;;;4.90;;
75456;SDS011;64036;48.266;14.192;2023-06-19T05:38:08;7.70;;;5.40;;
75456;SDS011;64036;48.266;14.192;2023-06-19T05:40:34;9.10;;;5.20;;
75456;SDS011;64036;48.266;14.192;2023-06-19T05:43:00;5.80;;;4.40;;
75456;SDS011;64036;48.266;14.192;2023-06-19T05:45:26;6.50;;;4.70;;
75456;SDS011;64036;48.266;14.192;2023-06-19T05:47:52;7.10;;;4.40;;
75456;SDS011;64036;48.266;14.192;2023-06-19T05:50:18;5.50;;;4.20;;
75456;SDS011;64036;48.266;14.192;2023-06-19T05:52:43;6.00;;;4.10;;
75456;SDS011;64036;48.266;14.192;2023-06-19T05:55:10;6.20;;;4.00;;
75456;SDS011;64036;48.266;14.192;2023-06-19T05:57:36;6.40;;;3.70;;
75456;SDS011;64036;48.266;14.192;2023-06-19T06:00:03;5.90;;;3.90;;
75456;SDS011;64036;48.266;14.192;2023-06-19T06:02:31;5.50;;;3.70;;
75456;SDS011;64036;48.266;14.192;2023-06-19T06:04:56;7.40;;;4.10;;
75456;SDS011;64036;48.266;14.192;2023-06-19T06:07:22;6.90;;;4.10;;
75456;SDS011;64036;48.266;14.192;2023-06-19T06:09:47;6.20;;;4.40;;
75456;SDS011;64036;48.266;14.192;2023-06-19T06:12:13;5.50;;;4.30;;
75456;SDS011;64036;48.266;14.192;2023-06-19T06:14:40;6.60;;;4.60;;
75456;SDS011;64036;48.266;14.192;2023-06-19T06:17:07;6.10;;;5.00;;
75456;SDS011;64036;48.266;14.192;2023-06-19T06:19:32;6.50;;;4.70;;
75456;SDS011;64036;48.266;14.192;2023-06-19T06:21:58;7.80;;;4.70;;
75456;SDS011;64036;48.266;14.192;2023-06-19T06:24:23;6.30;;;4.60;;
75456;SDS011;64036;48.266;14.192;2023-06-19T06:26:49;9.90;;;5.40;;
75456;SDS011;64036;48.266;14.192;2023-06-19T06:29:14;6.80;;;5.00;;
75456;SDS011;64036;48.266;14.192;2023-06-19T06:31:40;6.90;;;5.10;;
75456;SDS011;64036;48.266;14.192;2023-06-19T06:34:07;6.90;;;5.10;;
75456;SDS011;64036;48.266;14.192;2023-06-19T06:36:33;8.30;;;4.90;;
75456;SDS011;64036;48.266;14.192;2023-06-19T06:38:58;8.50;;;5.80;;
75456;SDS011;64036;48.266;14.192;2023-06-19T06:41:24;8.60;;;5.70;;
75456;SDS011;64036;48.266;14.192;2023-06-19T06:43:49;7.50;;;5.50;;
75456;SDS011;64036;48.266;14.192;2023-06-19T06:46:16;8.00;;;6.00;;
75456;SDS011;64036;48.266;14.192;2023-06-19T06:48:41;8.70;;;5.80;;
75456;SDS011;64036;48.266;14.192;2023-06-19T06:51:07;8.10;;;5.70;;
75456;SDS011;64036;48.266;14.192;2023-06-19T06:53:34;7.70;;;5.70;;
75456;SDS011;64036;48.266;14.192;2023-06-19T06:56:00;6.30;;;5.20;;
75456;SDS011;64036;48.266;14.192;2023-06-19T06:58:26;8.80;;;5.70;;
75456;SDS011;64036;48.266;14.192;2023-06-19T07:00:52;6.40;;;5.40;;
75456;SDS011;64036;48.266;14.192;2023-06-19T07:03:18;10.90;;;5.40;;
75456;SDS011;64036;48.266;14.192;2023-06-19T07:05:44;9.10;;;5.50;;
75456;SDS011;64036;48.266;14.192;2023-06-19T07:08:10;6.30;;;4.70;;
75456;SDS011;64036;48.266;14.192;2023-06-19T07:10:35;6.80;;;5.20;;
75456;SDS011;64036;48.266;14.192;2023-06-19T07:13:01;6.60;;;5.20;;
75456;SDS011;64036;48.266;14.192;2023-06-19T07:15:27;6.50;;;5.20;;
75456;SDS011;64036;48.266;14.192;2023-06-19T07:17:52;9.40;;;5.30;;
75456;SDS011;64036;48.266;14.192;2023-06-19T07:20:18;7.00;;;5.40;;
75456;SDS011;64036;48.266;14.192;2023-06-19T07:22:44;7.70;;;5.50;;
75456;SDS011;64036;48.266;14.192;2023-06-19T07:25:11;6.60;;;5.40;;
75456;SDS011;64036;48.266;14.192;2023-06-19T07:27:38;6.80;;;5.20;;
75456;SDS011;64036;48.266;14.192;2023-06-19T07:30:06;9.00;;;5.60;;
75456;SDS011;64036;48.266;14.192;2023-06-19T07:32:32;9.10;;;5.80;;
75456;SDS011;64036;48.266;14.192;2023-06-19T07:34:58;9.10;;;5.90;;
75456;SDS011;64036;48.266;14.192;2023-06-19T07:37:24;7.80;;;5.70;;
75456;SDS011;64036;48.266;14.192;2023-06-19T07:39:50;7.60;;;5.40;;
75456;SDS011;64036;48.266;14.192;2023-06-19T07:42:19;8.30;;;5.60;;
75456;SDS011;64036;48.266;14.192;2023-06-19T07:44:45;6.90;;;5.10;;
75456;SDS011;64036;48.266;14.192;2023-06-19T07:47:11;10.90;;;5.90;;
75456;SDS011;64036;48.266;14.192;2023-06-19T07:49:37;9.00;;;5.90;;
75456;SDS011;64036;48.266;14.192;2023-06-19T07:52:04;8.30;;;6.00;;
75456;SDS011;64036;48.266;14.192;2023-06-19T07:54:30;8.10;;;4.90;;
75456;SDS011;64036;48.266;14.192;2023-06-19T07:56:55;8.20;;;5.10;;
75456;SDS011;64036;48.266;14.192;2023-06-19T07:59:21;8.90;;;6.10;;
75456;SDS011;64036;48.266;14.192;2023-06-19T08:01:48;8.50;;;5.90;;
75456;SDS011;64036;48.266;14.192;2023-06-19T08:04:13;9.60;;;5.50;;
75456;SDS011;64036;48.266;14.192;2023-06-19T08:06:39;7.20;;;5.80;;
75456;SDS011;64036;48.266;14.192;2023-06-19T08:09:05;8.20;;;6.10;;
75456;SDS011;64036;48.266;14.192;2023-06-19T08:11:30;9.90;;;5.90;;
75456;SDS011;64036;48.266;14.192;2023-06-19T08:13:56;8.30;;;5.90;;
75456;SDS011;64036;48.266;14.192;2023-06-19T08:16:21;9.60;;;5.90;;
75456;SDS011;64036;48.266;14.192;2023-06-19T08:18:47;10.60;;;6.30;;
75456;SDS011;64036;48.266;14.192;2023-06-19T08:21:13;9.00;;;6.20;;
75456;SDS011;64036;48.266;14.192;2023-06-19T08:23:39;9.30;;;6.30;;
75456;SDS011;64036;48.266;14.192;2023-06-19T08:26:05;8.00;;;5.90;;
75456;SDS011;64036;48.266;14.192;2023-06-19T08:28:33;9.80;;;5.90;;
75456;SDS011;64036;48.266;14.192;2023-06-19T08:30:59;10.50;;;6.30;;
75456;SDS011;64036;48.266;14.192;2023-06-19T08:33:24;8.60;;;5.90;;
75456;SDS011;64036;48.266;14.192;2023-06-19T08:35:50;7.80;;;5.90;;
75456;SDS011;64036;48.266;14.192;2023-06-19T08:38:15;8.80;;;6.30;;
75456;SDS011;64036;48.266;14.192;2023-06-19T08:40:42;11.40;;;6.40;;
75456;SDS011;64036;48.266;14.192;2023-06-19T08:43:08;9.60;;;6.20;;
75456;SDS011;64036;48.266;14.192;2023-06-19T08:45:34;9.50;;;6.30;;
75456;SDS011;64036;48.266;14.192;2023-06-19T08:48:00;8.90;;;6.10;;
75456;SDS011;64036;48.266;14.192;2023-06-19T08:50:31;7.60;;;5.80;;
75456;SDS011;64036;48.266;14.192;2023-06-19T08:52:57;9.90;;;6.20;;
75456;SDS011;64036;48.266;14.192;2023-06-19T08:55:24;7.90;;;5.30;;
75456;SDS011;64036;48.266;14.192;2023-06-19T08:57:51;9.50;;;5.90;;
75456;SDS011;64036;48.266;14.192;2023-06-19T09:00:28;7.30;;;5.30;;
75456;SDS011;64036;48.266;14.192;2023-06-19T09:03:00;10.00;;;5.40;;
75456;SDS011;64036;48.266;14.192;2023-06-19T09:05:27;11.30;;;6.30;;
75456;SDS011;64036;48.266;14.192;2023-06-19T09:07:58;8.10;;;5.70;;
75456;SDS011;64036;48.266;14.192;2023-06-19T09:10:28;9.50;;;5.60;;
75456;SDS011;64036;48.266;14.192;2023-06-19T09:12:58;10.20;;;5.40;;
75456;SDS011;64036;48.266;14.192;2023-06-19T09:15:36;10.30;;;5.70;;
75456;SDS011;64036;48.266;14.192;2023-06-19T09:18:10;5.90;;;4.50;;
75456;SDS011;64036;48.266;14.192;2023-06-19T09:20:41;8.10;;;4.50;;
75456;SDS011;64036;48.266;14.192;2023-06-19T09:23:13;7.70;;;4.40;;
75456;SDS011;64036;48.266;14.192;2023-06-19T09:25:53;9.10;;;5.30;;
75456;SDS011;64036;48.266;14.192;2023-06-19T09:28:26;8.00;;;4.90;;
75456;SDS011;64036;48.266;14.192;2023-06-19T09:31:02;8.20;;;5.00;;
75456;SDS011;64036;48.266;14.192;2023-06-19T09:33:31;8.00;;;5.30;;
75456;SDS011;64036;48.266;14.192;2023-06-19T09:36:00;6.40;;;4.70;;
75456;SDS011;64036;48.266;14.192;2023-06-19T09:38:29;8.80;;;5.30;;
75456;SDS011;64036;48.266;14.192;2023-06-19T09:40:58;8.80;;;5.40;;
75456;SDS011;64036;48.266;14.192;2023-06-19T09:43:42;10.00;;;5.50;;
75456;SDS011;64036;48.266;14.192;2023-06-19T09:46:10;7.80;;;5.40;;
75456;SDS011;64036;48.266;14.192;2023-06-19T09:48:41;6.90;;;5.20;;
75456;SDS011;64036;48.266;14.192;2023-06-19T09:51:19;8.90;;;5.20;;
75456;SDS011;64036;48.266;14.192;2023-06-19T09:53:48;6.60;;;4.70;;
75456;SDS011;64036;48.266;14.192;2023-06-19T09:56:15;7.90;;;5.30;;
75456;SDS011;64036;48.266;14.192;2023-06-19T09:58:43;8.10;;;5.50;;
75456;SDS011;64036;48.266;14.192;2023-06-19T10:01:10;7.40;;;5.20;;
75456;SDS011;64036;48.266;14.192;2023-06-19T10:03:36;9.60;;;5.60;;
75456;SDS011;64036;48.266;14.192;2023-06-19T10:06:03;8.70;;;5.10;;
75456;SDS011;64036;48.266;14.192;2023-06-19T10:08:32;7.10;;;5.00;;
75456;SDS011;64036;48.266;14.192;2023-06-19T10:11:04;7.90;;;5.40;;
75456;SDS011;64036;48.266;14.192;2023-06-19T10:13:32;7.10;;;4.80;;
75456;SDS011;64036;48.266;14.192;2023-06-19T10:16:00;6.70;;;5.40;;
75456;SDS011;64036;48.266;14.192;2023-06-19T10:18:26;7.20;;;5.20;;
75456;SDS011;64036;48.266;14.192;2023-06-19T10:20:54;8.70;;;5.60;;
75456;SDS011;64036;48.266;14.192;2023-06-19T10:23:22;8.80;;;5.20;;
75456;SDS011;64036;48.266;14.192;2023-06-19T10:28:23;7.30;;;5.20;;
75456;SDS011;64036;48.266;14.192;2023-06-19T10:30:54;8.30;;;5.40;;
75456;SDS011;64036;48.266;14.192;2023-06-19T10:35:48;6.60;;;5.10;;
75456;SDS011;64036;48.266;14.192;2023-06-19T10:38:16;6.30;;;5.20;;
75456;SDS011;64036;48.266;14.192;2023-06-19T10:40:44;7.40;;;5.00;;
75456;SDS011;64036;48.266;14.192;2023-06-19T10:43:11;7.10;;;5.30;;
75456;SDS011;64036;48.266;14.192;2023-06-19T10:45:37;7.30;;;5.30;;
75456;SDS011;64036;48.266;14.192;2023-06-19T10:48:04;8.10;;;5.60;;
75456;SDS011;64036;48.266;14.192;2023-06-19T10:50:34;8.80;;;6.20;;
75456;SDS011;64036;48.266;14.192;2023-06-19T10:53:01;7.60;;;5.50;;
75456;SDS011;64036;48.266;14.192;2023-06-19T10:55:27;7.80;;;5.50;;
75456;SDS011;64036;48.266;14.192;2023-06-19T10:57:53;7.00;;;5.60;;
75456;SDS011;64036;48.266;14.192;2023-06-19T11:00:26;8.20;;;5.60;;
75456;SDS011;64036;48.266;14.192;2023-06-19T11:02:53;8.50;;;5.50;;
75456;SDS011;64036;48.266;14.192;2023-06-19T11:05:21;6.50;;;5.20;;
75456;SDS011;64036;48.266;14.192;2023-06-19T11:07:56;6.70;;;4.80;;
75456;SDS011;64036;48.266;14.192;2023-06-19T11:10:25;7.50;;;4.90;;
75456;SDS011;64036;48.266;14.192;2023-06-19T11:12:56;6.60;;;4.80;;
75456;SDS011;64036;48.266;14.192;2023-06-19T11:15:33;6.90;;;5.20;;
75456;SDS011;64036;48.266;14.192;2023-06-19T11:18:01;7.20;;;5.00;;
75456;SDS011;64036;48.266;14.192;2023-06-19T11:20:28;6.50;;;4.60;;
75456;SDS011;64036;48.266;14.192;2023-06-19T11:22:56;6.30;;;5.00;;
75456;SDS011;64036;48.266;14.192;2023-06-19T11:25:23;7.10;;;4.70;;
75456;SDS011;64036;48.266;14.192;2023-06-19T11:27:49;5.90;;;4.10;;
75456;SDS011;64036;48.266;14.192;2023-06-19T11:30:18;6.30;;;4.50;;
75456;SDS011;64036;48.266;14.192;2023-06-19T11:32:47;6.30;;;4.70;;
75456;SDS011;64036;48.266;14.192;2023-06-19T11:35:15;6.60;;;4.90;;
75456;SDS011;64036;48.266;14.192;2023-06-19T11:37:42;6.70;;;5.50;;
75456;SDS011;64036;48.266;14.192;2023-06-19T11:40:11;7.50;;;4.80;;
75456;SDS011;64036;48.266;14.192;2023-06-19T11:42:52;6.00;;;4.50;;
75456;SDS011;64036;48.266;14.192;2023-06-19T11:45:20;8.10;;;4.70;;
75456;SDS011;64036;48.266;14.192;2023-06-19T11:47:46;6.20;;;4.90;;
75456;SDS011;64036;48.266;14.192;2023-06-19T11:50:14;5.60;;;4.50;;
75456;SDS011;64036;48.266;14.192;2023-06-19T11:52:42;6.90;;;4.50;;
75456;SDS011;64036;48.266;14.192;2023-06-19T11:55:09;6.70;;;4.60;;
75456;SDS011;64036;48.266;14.192;2023-06-19T11:57:35;7.20;;;4.60;;
75456;SDS011;64036;48.266;14.192;2023-06-19T12:00:01;8.00;;;5.20;;
75456;SDS011;64036;48.266;14.192;2023-06-19T12:02:32;7.90;;;4.50;;
75456;SDS011;64036;48.266;14.192;2023-06-19T12:04:57;7.30;;;4.90;;
75456;SDS011;64036;48.266;14.192;2023-06-19T12:07:23;7.50;;;5.10;;
75456;SDS011;64036;48.266;14.192;2023-06-19T12:09:48;7.20;;;5.30;;
75456;SDS011;64036;48.266;14.192;2023-06-19T12:12:14;6.50;;;5.10;;
75456;SDS011;64036;48.266;14.192;2023-06-19T12:14:40;6.70;;;5.10;;
75456;SDS011;64036;48.266;14.192;2023-06-19T12:17:05;8.00;;;5.40;;
75456;SDS011;64036;48.266;14.192;2023-06-19T12:19:31;6.40;;;5.10;;
75456;SDS011;64036;48.266;14.192;2023-06-19T12:21:56;7.20;;;5.20;;
75456;SDS011;64036;48.266;14.192;2023-06-19T12:24:23;8.00;;;5.40;;
75456;SDS011;64036;48.266;14.192;2023-06-19T12:26:48;7.60;;;5.40;;
75456;SDS011;64036;48.266;14.192;2023-06-19T12:29:14;6.50;;;4.80;;
75456;SDS011;64036;48.266;14.192;2023-06-19T12:31:39;7.20;;;5.30;;
75456;SDS011;64036;48.266;14.192;2023-06-19T12:34:05;8.50;;;5.50;;
75456;SDS011;64036;48.266;14.192;2023-06-19T12:36:31;7.40;;;5.00;;
75456;SDS011;64036;48.266;14.192;2023-06-19T12:38:58;7.40;;;5.10;;
75456;SDS011;64036;48.266;14.192;2023-06-19T12:41:25;8.30;;;5.30;;
75456;SDS011;64036;48.266;14.192;2023-06-19T12:43:50;6.60;;;5.40;;
75456;SDS011;64036;48.266;14.192;2023-06-19T12:46:16;8.60;;;5.50;;
75456;SDS011;64036;48.266;14.192;2023-06-19T12:48:42;6.60;;;5.00;;
75456;SDS011;64036;48.266;14.192;2023-06-19T12:51:07;6.00;;;4.90;;
75456;SDS011;64036;48.266;14.192;2023-06-19T12:53:33;7.90;;;5.40;;
75456;SDS011;64036;48.266;14.192;2023-06-19T12:55:59;6.80;;;5.20;;
75456;SDS011;64036;48.266;14.192;2023-06-19T12:58:26;6.00;;;4.30;;
75456;SDS011;64036;48.266;14.192;2023-06-19T13:00:53;6.50;;;4.80;;
75456;SDS011;64036;48.266;14.192;2023-06-19T13:03:19;6.90;;;4.60;;
75456;SDS011;64036;48.266;14.192;2023-06-19T13:05:46;6.30;;;4.60;;
75456;SDS011;64036;48.266;14.192;2023-06-19T13:08:11;8.90;;;4.80;;
75456;SDS011;64036;48.266;14.192;2023-06-19T13:10:37;9.30;;;5.00;;
75456;SDS011;64036;48.266;14.192;2023-06-19T13:13:04;6.30;;;4.70;;
75456;SDS011;64036;48.266;14.192;2023-06-19T13:15:31;7.40;;;5.00;;
75456;SDS011;64036;48.266;14.192;2023-06-19T13:17:59;8.00;;;5.10;;
75456;SDS011;64036;48.266;14.192;2023-06-19T13:20:25;10.00;;;4.60;;
75456;SDS011;64036;48.266;14.192;2023-06-19T13:22:51;7.00;;;5.10;;
75456;SDS011;64036;48.266;14.192;2023-06-19T13:25:18;9.90;;;4.40;;
75456;SDS011;64036;48.266;14.192;2023-06-19T13:27:44;5.90;;;4.40;;
75456;SDS011;64036;48.266;14.192;2023-06-19T13:30:10;8.20;;;4.50;;
75456;SDS011;64036;48.266;14.192;2023-06-19T13:32:36;6.50;;;4.60;;
75456;SDS011;64036;48.266;14.192;2023-06-19T13:35:04;6.60;;;4.80;;
75456;SDS011;64036;48.266;14.192;2023-06-19T13:37:31;6.70;;;4.70;;
75456;SDS011;64036;48.266;14.192;2023-06-19T13:39:58;7.70;;;5.20;;
75456;SDS011;64036;48.266;14.192;2023-06-19T13:42:24;6.80;;;4.20;;
75456;SDS011;64036;48.266;14.192;2023-06-19T13:44:49;6.50;;;4.70;;
75456;SDS011;64036;48.266;14.192;2023-06-19T13:47:15;6.90;;;4.50;;
75456;SDS011;64036;48.266;14.192;2023-06-19T13:49:40;7.20;;;4.30;;
75456;SDS011;64036;48.266;14.192;2023-06-19T13:52:06;6.10;;;4.40;;
75456;SDS011;64036;48.266;14.192;2023-06-19T13:54:32;6.60;;;4.10;;
75456;SDS011;64036;48.266;14.192;2023-06-19T13:56:59;6.80;;;4.00;;
75456;SDS011;64036;48.266;14.192;2023-06-19T13:59:24;5.80;;;4.10;;
75456;SDS011;64036;48.266;14.192;2023-06-19T14:01:50;5.60;;;3.90;;
75456;SDS011;64036;48.266;14.192;2023-06-19T14:04:16;6.40;;;3.70;;
75456;SDS011;64036;48.266;14.192;2023-06-19T14:06:41;5.20;;;3.70;;
75456;SDS011;64036;48.266;14.192;2023-06-19T14:09:09;5.30;;;3.90;;
75456;SDS011;64036;48.266;14.192;2023-06-19T14:11:35;6.30;;;3.90;;
75456;SDS011;64036;48.266;14.192;2023-06-19T14:14:00;6.00;;;4.00;;
75456;SDS011;64036;48.266;14.192;2023-06-19T14:16:26;5.30;;;3.90;;
75456;SDS011;64036;48.266;14.192;2023-06-19T14:18:52;5.20;;;3.90;;
75456;SDS011;64036;48.266;14.192;2023-06-19T14:21:17;5.30;;;3.70;;
75456;SDS011;64036;48.266;14.192;2023-06-19T14:23:43;5.00;;;3.30;;
75456;SDS011;64036;48.266;14.192;2023-06-19T14:26:12;5.00;;;3.20;;
75456;SDS011;64036;48.266;14.192;2023-06-19T14:28:38;6.00;;;3.70;;
75456;SDS011;64036;48.266;14.192;2023-06-19T14:31:07;5.60;;;3.10;;
75456;SDS011;64036;48.266;14.192;2023-06-19T14:33:32;4.40;;;3.10;;
75456;SDS011;64036;48.266;14.192;2023-06-19T14:36:00;4.70;;;3.30;;
75456;SDS011;64036;48.266;14.192;2023-06-19T14:38:28;5.30;;;3.30;;
75456;SDS011;64036;48.266;14.192;2023-06-19T14:41:00;4.90;;;3.60;;